Time;durP1;ratioP1;P1;durP2;ratioP2;P2;SDS_P1;SDS_P2;PMS_P1;PMS_P2;Temp;Humidity;BMP_temperature;BMP_pressure;BME280_temperature;BME280_humidity;BME280_pressure;Samples;Min_cycle;Max_cycle;Signal;HPM_P1;HPM_P2
2023/05/15 00:00:11;;;;;;;5.75;5.35;;;;;;;;;;5041676;28;20381;-81
2023/05/15 00:02:37;;;;;;;5.80;5.30;;;;;;;;;;5052171;28;20397;-82
2023/05/15 00:05:12;;;;;;;6.15;5.75;;;;;;;;;;5045171;28;20386;-81
2023/05/15 00:07:38;;;;;;;5.90;5.50;;;;;;;;;;5032366;28;20920;-82
2023/05/15 00:10:05;;;;;;;5.97;5.47;;;;;;;;;;5032476;28;20391;-82
2023/05/15 00:12:31;;;;;;;5.70;5.30;;;;;;;;;;5026787;28;20392;-82
2023/05/15 00:14:57;;;;;;;6.80;6.30;;;;;;;;;;5033767;28;20391;-84
2023/05/15 00:17:22;;;;;;;6.90;6.40;;;;;;;;;;5041587;28;20937;-81
2023/05/15 00:19:49;;;;;;;6.38;5.97;;;;;;;;;;5047463;28;20499;-82
2023/05/15 00:22:14;;;;;;;8.90;8.20;;;;;;;;;;5040586;28;20375;-82
2023/05/15 00:24:40;;;;;;;10.82;9.82;;;;;;;;;;5050163;28;20431;-81
2023/05/15 00:27:07;;;;;;;10.77;9.88;;;;;;;;;;5038806;28;20383;-81
2023/05/15 00:29:33;;;;;;;11.00;10.00;;;;;;;;;;5032096;28;20876;-83
2023/05/15 00:31:59;;;;;;;10.68;9.77;;;;;;;;;;5031753;28;20391;-84
2023/05/15 00:34:25;;;;;;;10.07;9.27;;;;;;;;;;5042816;28;20474;-82
2023/05/15 00:36:51;;;;;;;9.90;9.20;;;;;;;;;;5031925;28;20462;-81
2023/05/15 00:39:17;;;;;;;10.13;9.32;;;;;;;;;;5036708;28;20409;-81
2023/05/15 00:41:44;;;;;;;9.70;9.00;;;;;;;;;;5041007;28;20440;-81
2023/05/15 00:44:11;;;;;;;9.10;8.40;;;;;;;;;;5031378;28;20372;-81
2023/05/15 00:46:37;;;;;;;9.68;8.88;;;;;;;;;;5031672;28;20398;-81
2023/05/15 00:49:05;;;;;;;9.25;8.57;;;;;;;;;;5031762;28;20533;-84
2023/05/15 00:51:31;;;;;;;10.27;9.50;;;;;;;;;;5039734;28;20388;-81
2023/05/15 00:53:58;;;;;;;10.48;9.68;;;;;;;;;;5051812;28;20756;-81
2023/05/15 00:56:24;;;;;;;9.93;9.13;;;;;;;;;;5043398;28;20407;-82
2023/05/15 00:58:51;;;;;;;10.07;9.38;;;;;;;;;;5033847;28;20485;-81
2023/05/15 01:01:17;;;;;;;9.88;8.98;;;;;;;;;;5033543;28;20877;-81
2023/05/15 01:03:43;;;;;;;8.90;8.20;;;;;;;;;;5031791;28;20869;-81
2023/05/15 01:06:10;;;;;;;8.05;7.53;;;;;;;;;;5046513;28;20403;-81
2023/05/15 01:08:36;;;;;;;8.65;8.05;;;;;;;;;;5045007;28;20391;-81
2023/05/15 01:11:03;;;;;;;7.55;6.85;;;;;;;;;;5043124;28;20414;-81
2023/05/15 01:13:29;;;;;;;7.50;7.00;;;;;;;;;;5031386;28;20416;-81
2023/05/15 01:15:55;;;;;;;8.07;7.47;;;;;;;;;;5035012;28;20413;-84
2023/05/15 01:18:21;;;;;;;6.95;6.47;;;;;;;;;;5037098;28;20764;-84
2023/05/15 01:20:54;;;;;;;7.00;6.50;;;;;;;;;;5037223;28;20379;-81
2023/05/15 01:23:35;;;;;;;6.70;6.20;;;;;;;;;;5030328;28;20410;-83
2023/05/15 01:26:01;;;;;;;7.10;6.60;;;;;;;;;;5042635;28;20377;-83
2023/05/15 01:28:39;;;;;;;6.68;6.28;;;;;;;;;;5044933;28;20752;-83
2023/05/15 01:31:07;;;;;;;7.47;6.93;;;;;;;;;;5032698;28;20881;-83
2023/05/15 01:33:34;;;;;;;6.57;6.07;;;;;;;;;;5047916;28;20381;-82
2023/05/15 01:36:04;;;;;;;7.10;6.60;;;;;;;;;;5042639;28;20481;-83
2023/05/15 01:38:34;;;;;;;7.05;6.55;;;;;;;;;;5038465;28;20408;-83
2023/05/15 01:41:13;;;;;;;7.60;6.95;;;;;;;;;;5035277;28;20432;-83
2023/05/15 01:43:40;;;;;;;6.83;6.13;;;;;;;;;;5051004;28;20386;-83
2023/05/15 01:46:07;;;;;;;6.90;6.40;;;;;;;;;;5051553;28;20419;-83
2023/05/15 01:48:35;;;;;;;7.50;6.90;;;;;;;;;;5053781;28;20381;-82
2023/05/15 01:51:02;;;;;;;7.25;6.65;;;;;;;;;;5054599;28;20389;-83
2023/05/15 01:53:32;;;;;;;8.00;7.40;;;;;;;;;;5054799;28;20413;-83
2023/05/15 01:55:59;;;;;;;8.57;7.88;;;;;;;;;;5054668;28;20388;-83
2023/05/15 01:58:25;;;;;;;8.75;8.05;;;;;;;;;;5054647;28;20401;-83
2023/05/15 02:00:51;;;;;;;8.35;7.70;;;;;;;;;;5054077;28;20527;-82
2023/05/15 02:03:18;;;;;;;7.72;7.22;;;;;;;;;;5054564;28;20383;-83
2023/05/15 02:05:46;;;;;;;7.57;6.97;;;;;;;;;;5054531;28;20717;-83
2023/05/15 02:08:12;;;;;;;8.25;7.63;;;;;;;;;;5054432;28;20389;-83
2023/05/15 02:10:39;;;;;;;7.63;7.13;;;;;;;;;;5054462;28;20470;-82
2023/05/15 02:13:06;;;;;;;7.80;7.10;;;;;;;;;;5054363;28;20377;-83
2023/05/15 02:15:33;;;;;;;7.60;7.10;;;;;;;;;;5054394;28;20382;-83
2023/05/15 02:17:59;;;;;;;7.70;7.20;;;;;;;;;;5047709;28;20901;-83
2023/05/15 02:20:25;;;;;;;8.48;7.88;;;;;;;;;;5041718;28;20377;-83
2023/05/15 02:22:51;;;;;;;7.65;7.15;;;;;;;;;;5046314;28;20433;-83
2023/05/15 02:25:17;;;;;;;9.15;8.55;;;;;;;;;;5039769;28;20871;-83
2023/05/15 02:27:47;;;;;;;9.40;8.70;;;;;;;;;;5038236;28;20923;-83
2023/05/15 02:30:30;;;;;;;9.27;8.68;;;;;;;;;;5047060;28;20388;-83
2023/05/15 02:33:05;;;;;;;9.23;8.63;;;;;;;;;;5054409;28;20382;-83
2023/05/15 02:35:40;;;;;;;10.90;10.00;;;;;;;;;;5034374;28;20431;-83
2023/05/15 02:38:08;;;;;;;12.07;11.17;;;;;;;;;;5034030;28;20418;-82
2023/05/15 02:40:36;;;;;;;12.50;11.50;;;;;;;;;;5051691;28;20385;-83
2023/05/15 02:43:02;;;;;;;12.10;11.18;;;;;;;;;;5023833;28;20388;-82
2023/05/15 02:45:28;;;;;;;11.88;10.98;;;;;;;;;;5040443;28;20719;-82
2023/05/15 02:47:55;;;;;;;12.68;11.75;;;;;;;;;;5033847;28;20386;-82
2023/05/15 02:50:21;;;;;;;13.30;12.30;;;;;;;;;;5040587;28;20871;-82
2023/05/15 02:52:47;;;;;;;12.57;11.68;;;;;;;;;;5050398;28;20739;-82
2023/05/15 02:55:13;;;;;;;12.37;11.37;;;;;;;;;;5053790;28;20532;-82
2023/05/15 02:57:39;;;;;;;12.90;11.98;;;;;;;;;;5051680;28;20502;-82
2023/05/15 03:00:07;;;;;;;13.43;12.43;;;;;;;;;;5033651;28;20893;-82
2023/05/15 03:02:33;;;;;;;14.32;13.30;;;;;;;;;;5033494;28;20386;-82
2023/05/15 03:04:59;;;;;;;15.32;14.02;;;;;;;;;;5033661;28;20465;-82
2023/05/15 03:07:26;;;;;;;14.37;13.27;;;;;;;;;;5033869;28;20383;-83
2023/05/15 03:09:52;;;;;;;13.45;12.43;;;;;;;;;;5033463;28;20761;-83
2023/05/15 03:12:17;;;;;;;14.80;13.40;;;;;;;;;;5033791;28;20425;-82
2023/05/15 03:14:43;;;;;;;15.00;13.70;;;;;;;;;;5033338;28;20391;-82
2023/05/15 03:17:10;;;;;;;15.45;14.15;;;;;;;;;;5033472;28;20441;-82
2023/05/15 03:19:36;;;;;;;13.38;12.45;;;;;;;;;;5032387;28;20857;-82
2023/05/15 03:22:01;;;;;;;14.03;13.03;;;;;;;;;;5041131;28;20398;-82
2023/05/15 03:24:27;;;;;;;13.15;12.07;;;;;;;;;;5037381;28;20382;-83
2023/05/15 03:26:53;;;;;;;12.90;12.00;;;;;;;;;;5049115;28;20444;-83
2023/05/15 03:29:19;;;;;;;13.40;12.40;;;;;;;;;;5042349;28;20396;-83
2023/05/15 03:31:45;;;;;;;13.32;12.43;;;;;;;;;;5045293;28;20401;-82
2023/05/15 03:34:11;;;;;;;12.57;11.57;;;;;;;;;;5049442;28;21043;-83
2023/05/15 03:36:37;;;;;;;12.80;11.80;;;;;;;;;;5046346;28;20390;-82
2023/05/15 03:39:03;;;;;;;12.53;11.53;;;;;;;;;;5050780;28;20420;-82
2023/05/15 03:41:29;;;;;;;12.90;12.00;;;;;;;;;;5041802;28;20935;-82
2023/05/15 03:43:55;;;;;;;14.68;13.48;;;;;;;;;;5032019;28;20380;-82
2023/05/15 03:46:21;;;;;;;12.30;11.40;;;;;;;;;;5032226;28;20449;-82
2023/05/15 03:48:47;;;;;;;12.80;11.90;;;;;;;;;;5031855;28;20379;-82
2023/05/15 03:51:13;;;;;;;13.73;12.68;;;;;;;;;;5045058;28;20383;-83
2023/05/15 03:53:39;;;;;;;12.88;11.98;;;;;;;;;;5035203;28;20398;-82
2023/05/15 03:56:05;;;;;;;13.65;12.55;;;;;;;;;;5049440;28;20382;-82
2023/05/15 03:58:31;;;;;;;12.60;11.70;;;;;;;;;;5052382;28;20437;-82
2023/05/15 04:00:58;;;;;;;13.73;12.73;;;;;;;;;;5051461;28;20916;-82
2023/05/15 04:03:23;;;;;;;12.80;11.90;;;;;;;;;;5052417;28;20377;-82
2023/05/15 04:05:50;;;;;;;12.82;11.82;;;;;;;;;;5052394;28;20519;-82
2023/05/15 04:08:17;;;;;;;13.13;12.13;;;;;;;;;;5051859;28;20457;-82
2023/05/15 04:10:43;;;;;;;12.43;11.52;;;;;;;;;;5045106;28;20387;-84
2023/05/15 04:13:08;;;;;;;12.80;11.77;;;;;;;;;;5039268;28;20385;-82
2023/05/15 04:15:35;;;;;;;13.30;12.30;;;;;;;;;;5041702;28;20988;-84
2023/05/15 04:18:00;;;;;;;12.73;11.80;;;;;;;;;;5044279;28;20387;-82
2023/05/15 04:20:26;;;;;;;12.35;11.45;;;;;;;;;;5046107;28;20439;-82
2023/05/15 04:22:53;;;;;;;12.90;12.00;;;;;;;;;;5044181;28;20858;-82
2023/05/15 04:25:19;;;;;;;12.63;11.65;;;;;;;;;;5046743;28;20376;-82
2023/05/15 04:27:45;;;;;;;12.80;11.80;;;;;;;;;;5041867;28;20859;-83
2023/05/15 04:30:12;;;;;;;12.25;11.35;;;;;;;;;;5044317;28;20940;-82
2023/05/15 04:32:39;;;;;;;12.43;11.52;;;;;;;;;;5036108;28;20383;-83
2023/05/15 04:35:08;;;;;;;13.57;12.45;;;;;;;;;;5039139;28;20387;-82
2023/05/15 04:37:34;;;;;;;15.50;14.30;;;;;;;;;;5046725;28;20389;-82
2023/05/15 04:40:00;;;;;;;15.63;14.43;;;;;;;;;;5050455;28;20484;-83
2023/05/15 04:42:26;;;;;;;15.15;13.95;;;;;;;;;;5051117;28;20413;-83
2023/05/15 04:44:52;;;;;;;14.67;13.47;;;;;;;;;;5051564;28;20783;-83
2023/05/15 04:47:18;;;;;;;15.68;14.48;;;;;;;;;;5040634;28;20395;-82
2023/05/15 04:49:46;;;;;;;16.83;15.43;;;;;;;;;;5050713;28;20401;-82
2023/05/15 04:52:12;;;;;;;18.00;16.40;;;;;;;;;;5036800;28;20981;-82
2023/05/15 04:54:38;;;;;;;19.10;17.37;;;;;;;;;;5042832;28;20566;-83
2023/05/15 04:57:05;;;;;;;17.63;16.23;;;;;;;;;;5032273;28;20466;-83
2023/05/15 04:59:31;;;;;;;17.60;16.08;;;;;;;;;;5041298;28;20409;-82
2023/05/15 05:01:57;;;;;;;18.60;16.90;;;;;;;;;;5038764;28;20383;-83
2023/05/15 05:04:23;;;;;;;18.63;16.93;;;;;;;;;;5044752;28;20394;-82
2023/05/15 05:06:49;;;;;;;17.35;15.75;;;;;;;;;;5046778;28;20389;-81
2023/05/15 05:09:15;;;;;;;18.33;16.63;;;;;;;;;;5046524;28;20378;-81
2023/05/15 05:11:42;;;;;;;20.77;18.77;;;;;;;;;;5042898;28;20419;-81
2023/05/15 05:14:08;;;;;;;19.17;17.48;;;;;;;;;;5038228;28;20422;-81
2023/05/15 05:16:35;;;;;;;21.13;19.10;;;;;;;;;;5033292;28;20381;-80
2023/05/15 05:19:01;;;;;;;22.48;20.00;;;;;;;;;;5042634;28;20408;-81
2023/05/15 05:21:27;;;;;;;21.88;19.65;;;;;;;;;;5045181;28;20383;-80
2023/05/15 05:23:53;;;;;;;22.77;20.30;;;;;;;;;;5041551;28;20800;-81
2023/05/15 05:26:19;;;;;;;19.33;17.52;;;;;;;;;;5046680;28;20449;-81
2023/05/15 05:28:45;;;;;;;19.45;17.65;;;;;;;;;;5039708;28;20375;-79
2023/05/15 05:31:11;;;;;;;19.02;17.33;;;;;;;;;;5035437;28;20402;-79
2023/05/15 05:33:37;;;;;;;17.08;15.57;;;;;;;;;;5053707;28;20938;-80
2023/05/15 05:36:04;;;;;;;15.40;14.25;;;;;;;;;;5057490;28;20476;-80
2023/05/15 05:38:31;;;;;;;17.63;16.08;;;;;;;;;;5054872;28;20983;-80
2023/05/15 05:40:57;;;;;;;17.30;15.77;;;;;;;;;;5054817;28;20373;-80
2023/05/15 05:43:25;;;;;;;250.03;223.80;;;;;;;;;;5027780;28;20514;-81
2023/05/15 05:45:51;;;;;;;83.40;68.13;;;;;;;;;;5055972;28;20821;-80
2023/05/15 05:48:17;;;;;;;31.58;26.58;;;;;;;;;;5035380;28;20442;-80
2023/05/15 05:50:43;;;;;;;15.90;14.30;;;;;;;;;;5035593;28;20865;-80
2023/05/15 05:53:09;;;;;;;15.52;14.18;;;;;;;;;;5035418;28;20379;-80
2023/05/15 05:55:35;;;;;;;15.70;14.38;;;;;;;;;;5046853;28;20381;-81
2023/05/15 05:58:01;;;;;;;18.42;16.55;;;;;;;;;;5054101;28;20386;-80
2023/05/15 06:00:27;;;;;;;16.65;15.05;;;;;;;;;;5053321;28;21067;-81
2023/05/15 06:02:55;;;;;;;16.88;15.38;;;;;;;;;;5053056;28;20381;-81
2023/05/15 06:05:22;;;;;;;16.52;15.02;;;;;;;;;;5053056;28;20739;-81
2023/05/15 06:07:48;;;;;;;17.95;16.30;;;;;;;;;;5052498;28;20377;-81
2023/05/15 06:10:14;;;;;;;19.98;17.98;;;;;;;;;;5052200;28;20419;-82
2023/05/15 06:12:40;;;;;;;19.35;17.33;;;;;;;;;;5052270;28;20382;-82
2023/05/15 06:15:06;;;;;;;21.20;18.63;;;;;;;;;;5052925;28;20434;-82
2023/05/15 06:17:32;;;;;;;21.75;18.33;;;;;;;;;;5052850;28;20377;-82
2023/05/15 06:19:59;;;;;;;21.95;19.48;;;;;;;;;;5052038;28;20421;-82
2023/05/15 06:22:25;;;;;;;24.47;20.80;;;;;;;;;;5043731;28;20387;-81
2023/05/15 06:24:51;;;;;;;27.05;21.75;;;;;;;;;;5043840;28;20724;-82
2023/05/15 06:27:17;;;;;;;28.27;22.35;;;;;;;;;;5044959;28;20378;-82
2023/05/15 06:29:43;;;;;;;22.97;20.43;;;;;;;;;;5030765;28;20402;-79
2023/05/15 06:32:09;;;;;;;24.20;20.60;;;;;;;;;;5047781;28;20393;-80
2023/05/15 06:34:34;;;;;;;27.23;22.05;;;;;;;;;;5052563;28;20388;-84
2023/05/15 06:37:01;;;;;;;27.60;22.02;;;;;;;;;;5052887;28;20497;-82
2023/05/15 06:39:27;;;;;;;28.45;22.42;;;;;;;;;;5045859;28;20426;-82
2023/05/15 06:41:56;;;;;;;29.13;22.77;;;;;;;;;;5041107;28;20383;-81
2023/05/15 06:44:23;;;;;;;25.35;21.27;;;;;;;;;;5050034;28;20392;-82
2023/05/15 06:46:49;;;;;;;22.85;19.95;;;;;;;;;;5050631;28;20396;-83
2023/05/15 06:49:14;;;;;;;21.88;19.58;;;;;;;;;;5035167;28;20397;-82
2023/05/15 06:51:41;;;;;;;19.03;16.83;;;;;;;;;;5044301;28;20972;-82
2023/05/15 06:54:07;;;;;;;18.08;16.25;;;;;;;;;;5048830;28;20395;-80
2023/05/15 06:56:33;;;;;;;14.43;13.10;;;;;;;;;;5048482;28;20378;-80
2023/05/15 06:58:59;;;;;;;14.87;13.57;;;;;;;;;;5033954;28;21079;-80
2023/05/15 07:01:25;;;;;;;16.42;14.77;;;;;;;;;;5051120;28;20444;-80
2023/05/15 07:03:51;;;;;;;16.52;14.98;;;;;;;;;;5051765;28;20404;-80
2023/05/15 07:06:16;;;;;;;13.45;12.25;;;;;;;;;;5046244;28;20409;-80
2023/05/15 07:08:42;;;;;;;14.40;13.20;;;;;;;;;;5051937;28;20471;-80
2023/05/15 07:11:08;;;;;;;12.55;11.55;;;;;;;;;;5033519;28;20386;-81
2023/05/15 07:13:35;;;;;;;10.73;9.93;;;;;;;;;;5052024;28;20522;-82
2023/05/15 07:16:02;;;;;;;10.05;9.35;;;;;;;;;;5047620;28;20740;-83
2023/05/15 07:18:28;;;;;;;9.27;8.57;;;;;;;;;;5053667;28;20416;-82
2023/05/15 07:20:54;;;;;;;8.67;8.07;;;;;;;;;;5051926;28;20889;-83
2023/05/15 07:23:20;;;;;;;9.23;8.52;;;;;;;;;;5039583;28;20391;-82
2023/05/15 07:25:46;;;;;;;10.75;9.75;;;;;;;;;;5045642;28;20375;-86
2023/05/15 07:28:12;;;;;;;10.80;9.90;;;;;;;;;;5034389;28;20863;-83
2023/05/15 07:30:38;;;;;;;12.68;11.55;;;;;;;;;;5044052;28;20414;-83
2023/05/15 07:33:03;;;;;;;12.55;11.45;;;;;;;;;;5045140;28;20407;-84
2023/05/15 07:35:30;;;;;;;13.55;12.43;;;;;;;;;;5051875;28;20745;-83
2023/05/15 07:37:56;;;;;;;14.68;13.38;;;;;;;;;;5051999;28;20464;-84
2023/05/15 07:40:22;;;;;;;15.48;13.88;;;;;;;;;;5051926;28;20469;-83
2023/05/15 07:42:47;;;;;;;13.17;12.17;;;;;;;;;;5045459;28;20382;-84
2023/05/15 07:45:13;;;;;;;15.00;13.65;;;;;;;;;;5051451;28;20381;-82
2023/05/15 07:47:45;;;;;;;15.13;13.77;;;;;;;;;;5051796;28;20891;-83
2023/05/15 07:50:11;;;;;;;10.82;10.02;;;;;;;;;;5051715;28;20389;-82
2023/05/15 07:52:37;;;;;;;11.60;10.63;;;;;;;;;;5051524;28;20480;-82
2023/05/15 07:55:03;;;;;;;10.20;9.50;;;;;;;;;;5050788;28;20424;-82
2023/05/15 07:57:30;;;;;;;10.57;9.88;;;;;;;;;;5051072;28;20419;-81
2023/05/15 07:59:56;;;;;;;12.00;11.07;;;;;;;;;;5051440;28;20899;-82
2023/05/15 08:02:22;;;;;;;13.95;12.85;;;;;;;;;;5051471;28;20401;-82
2023/05/15 08:04:48;;;;;;;14.23;13.07;;;;;;;;;;5051582;28;20377;-82
2023/05/15 08:07:14;;;;;;;13.57;12.48;;;;;;;;;;5051510;28;20416;-82
2023/05/15 08:09:40;;;;;;;51.63;46.30;;;;;;;;;;5051364;28;20450;-82
2023/05/15 08:12:16;;;;;;;13.98;12.88;;;;;;;;;;5051266;28;20386;-83
2023/05/15 08:14:42;;;;;;;13.77;12.67;;;;;;;;;;5051375;28;20424;-82
2023/05/15 08:17:08;;;;;;;14.32;13.30;;;;;;;;;;5051354;28;20421;-82
2023/05/15 08:19:34;;;;;;;13.98;12.95;;;;;;;;;;5051129;28;20466;-82
2023/05/15 08:22:00;;;;;;;15.20;13.90;;;;;;;;;;5051083;28;20868;-83
2023/05/15 08:24:26;;;;;;;14.95;13.85;;;;;;;;;;5035874;28;20385;-82
2023/05/15 08:26:52;;;;;;;15.98;14.60;;;;;;;;;;5050554;28;20388;-82
2023/05/15 08:29:18;;;;;;;13.98;12.98;;;;;;;;;;5051131;28;20464;-82
2023/05/15 08:31:44;;;;;;;13.87;12.87;;;;;;;;;;5053535;28;20563;-82
2023/05/15 08:34:10;;;;;;;14.45;13.23;;;;;;;;;;5037693;28;20391;-82
2023/05/15 08:36:36;;;;;;;13.00;12.07;;;;;;;;;;5045795;28;20394;-82
2023/05/15 08:39:02;;;;;;;13.82;12.63;;;;;;;;;;5049669;28;20416;-82
2023/05/15 08:41:37;;;;;;;12.97;11.97;;;;;;;;;;5040546;28;20742;-82
2023/05/15 08:44:04;;;;;;;14.43;13.35;;;;;;;;;;5031061;28;20382;-82
2023/05/15 08:46:32;;;;;;;13.47;12.50;;;;;;;;;;5031149;28;20428;-82
2023/05/15 08:48:58;;;;;;;13.30;12.30;;;;;;;;;;5030910;28;20466;-82
2023/05/15 08:51:24;;;;;;;14.98;13.88;;;;;;;;;;5031220;28;20781;-82
2023/05/15 08:53:50;;;;;;;14.52;13.35;;;;;;;;;;5032827;28;20379;-82
2023/05/15 08:56:17;;;;;;;14.25;13.15;;;;;;;;;;5034643;28;20382;-82
2023/05/15 08:58:44;;;;;;;14.55;13.55;;;;;;;;;;5035017;28;20417;-82
2023/05/15 09:01:11;;;;;;;15.63;14.32;;;;;;;;;;5034902;28;20984;-82
2023/05/15 09:03:37;;;;;;;14.40;13.40;;;;;;;;;;5035000;28;20382;-81
2023/05/15 09:06:04;;;;;;;13.27;12.27;;;;;;;;;;5034912;28;20389;-82
2023/05/15 09:08:32;;;;;;;13.55;12.55;;;;;;;;;;5034867;28;20394;-82
2023/05/15 09:10:58;;;;;;;14.63;13.53;;;;;;;;;;5034860;28;20383;-81
2023/05/15 09:13:24;;;;;;;13.98;12.85;;;;;;;;;;5034757;28;20383;-82
2023/05/15 09:15:51;;;;;;;13.50;12.40;;;;;;;;;;5034863;28;20382;-81
2023/05/15 09:18:17;;;;;;;12.98;12.07;;;;;;;;;;5034522;28;20415;-81
2023/05/15 09:20:43;;;;;;;12.50;11.57;;;;;;;;;;5034610;28;20379;-81
2023/05/15 09:23:22;;;;;;;13.38;12.38;;;;;;;;;;5049374;28;20445;-81
2023/05/15 09:25:52;;;;;;;12.07;11.17;;;;;;;;;;5049035;28;20375;-81
2023/05/15 09:28:24;;;;;;;13.35;12.25;;;;;;;;;;5038098;28;20474;-81
2023/05/15 09:30:56;;;;;;;12.45;11.55;;;;;;;;;;5034455;28;20818;-81
2023/05/15 09:33:27;;;;;;;12.32;11.43;;;;;;;;;;5050965;28;20391;-81
2023/05/15 09:35:52;;;;;;;12.25;11.43;;;;;;;;;;5034375;28;20391;-81
2023/05/15 09:38:18;;;;;;;10.83;10.13;;;;;;;;;;5034182;28;20422;-80
2023/05/15 09:40:44;;;;;;;13.05;11.85;;;;;;;;;;5048086;28;20474;-81
2023/05/15 09:43:11;;;;;;;11.70;10.90;;;;;;;;;;5034303;28;20746;-80
2023/05/15 09:45:37;;;;;;;11.90;11.10;;;;;;;;;;5048179;28;20427;-81
2023/05/15 09:48:07;;;;;;;11.38;10.48;;;;;;;;;;5034107;28;20414;-81
2023/05/15 09:50:34;;;;;;;12.00;11.10;;;;;;;;;;5034018;28;20375;-80
2023/05/15 09:53:00;;;;;;;11.40;10.60;;;;;;;;;;5033939;28;20394;-80
2023/05/15 09:55:26;;;;;;;10.55;9.80;;;;;;;;;;5033942;28;20862;-80
2023/05/15 09:58:11;;;;;;;10.02;9.32;;;;;;;;;;5033672;28;20383;-80
2023/05/15 10:00:38;;;;;;;10.07;9.38;;;;;;;;;;5033792;28;20482;-80
2023/05/15 10:03:05;;;;;;;11.10;10.30;;;;;;;;;;5033752;28;20858;-80
2023/05/15 10:05:31;;;;;;;10.27;9.57;;;;;;;;;;5033751;28;20384;-80
2023/05/15 10:07:58;;;;;;;11.52;10.73;;;;;;;;;;5036997;28;20379;-80
2023/05/15 10:10:24;;;;;;;11.00;10.10;;;;;;;;;;5034818;28;20395;-80
2023/05/15 10:12:51;;;;;;;10.55;9.75;;;;;;;;;;5033536;28;20387;-80
2023/05/15 10:15:17;;;;;;;11.40;10.50;;;;;;;;;;5033569;28;20870;-80
2023/05/15 10:17:43;;;;;;;10.30;9.50;;;;;;;;;;5033559;28;20483;-80
2023/05/15 10:20:10;;;;;;;10.50;9.73;;;;;;;;;;5033357;28;20546;-80
2023/05/15 10:22:41;;;;;;;11.70;10.90;;;;;;;;;;5033345;28;20379;-80
2023/05/15 10:25:16;;;;;;;10.63;9.93;;;;;;;;;;5041374;28;20376;-80
2023/05/15 10:27:42;;;;;;;10.45;9.75;;;;;;;;;;5042780;28;20407;-80
2023/05/15 10:30:12;;;;;;;9.38;8.77;;;;;;;;;;5052223;28;20395;-79
2023/05/15 10:32:40;;;;;;;10.27;9.48;;;;;;;;;;5033128;28;20478;-80
2023/05/15 10:35:07;;;;;;;8.48;7.88;;;;;;;;;;5033067;28;20430;-80
2023/05/15 10:37:34;;;;;;;7.13;6.72;;;;;;;;;;5033131;28;20401;-80
2023/05/15 10:40:01;;;;;;;8.10;7.60;;;;;;;;;;5043654;28;20768;-80
2023/05/15 10:42:28;;;;;;;7.60;7.00;;;;;;;;;;5035902;28;20405;-80
2023/05/15 10:44:58;;;;;;;9.40;8.70;;;;;;;;;;5033081;28;20387;-80
2023/05/15 10:47:24;;;;;;;8.20;7.70;;;;;;;;;;5032040;28;20959;-80
2023/05/15 10:49:50;;;;;;;7.68;7.07;;;;;;;;;;5032985;28;20466;-80
2023/05/15 10:52:16;;;;;;;8.13;7.50;;;;;;;;;;5050029;28;20457;-80
2023/05/15 10:54:42;;;;;;;7.37;6.87;;;;;;;;;;5032858;28;20383;-81
2023/05/15 10:57:09;;;;;;;8.45;7.85;;;;;;;;;;5032835;28;20814;-81
2023/05/15 10:59:35;;;;;;;6.75;6.25;;;;;;;;;;5032626;28;20460;-81
2023/05/15 11:02:21;;;;;;;7.10;6.60;;;;;;;;;;5032629;28;20375;-81
2023/05/15 11:04:47;;;;;;;7.38;6.88;;;;;;;;;;5032504;28;20383;-81
2023/05/15 11:07:15;;;;;;;6.85;6.40;;;;;;;;;;5032652;28;20865;-82
2023/05/15 11:09:41;;;;;;;7.10;6.53;;;;;;;;;;5032405;28;20414;-81
2023/05/15 11:12:08;;;;;;;6.22;5.80;;;;;;;;;;5032440;28;20383;-82
2023/05/15 11:14:35;;;;;;;6.28;5.78;;;;;;;;;;5032455;28;20383;-82
2023/05/15 11:17:03;;;;;;;5.40;5.00;;;;;;;;;;5032542;28;20383;-81
2023/05/15 11:19:32;;;;;;;4.95;4.65;;;;;;;;;;5031369;28;20415;-82
2023/05/15 11:22:04;;;;;;;5.25;4.95;;;;;;;;;;5031109;28;20410;-81
2023/05/15 11:24:31;;;;;;;6.15;5.60;;;;;;;;;;5044317;28;20745;-81
2023/05/15 11:26:58;;;;;;;5.75;5.35;;;;;;;;;;5040442;28;20379;-81
2023/05/15 11:29:25;;;;;;;5.47;5.07;;;;;;;;;;5035724;28;20773;-81
2023/05/15 11:31:50;;;;;;;4.97;4.60;;;;;;;;;;5039379;28;20762;-79
2023/05/15 11:34:29;;;;;;;4.63;4.32;;;;;;;;;;5053885;28;20391;-81
2023/05/15 11:36:55;;;;;;;5.10;4.80;;;;;;;;;;5043050;28;20401;-81
2023/05/15 11:39:23;;;;;;;5.60;5.20;;;;;;;;;;5042626;28;21085;-81
2023/05/15 11:41:49;;;;;;;6.00;5.40;;;;;;;;;;5034940;28;20386;-81
2023/05/15 11:44:19;;;;;;;5.25;4.95;;;;;;;;;;5039747;28;20381;-81
2023/05/15 11:46:46;;;;;;;6.00;5.57;;;;;;;;;;5041566;28;20382;-81
2023/05/15 11:49:14;;;;;;;6.68;6.07;;;;;;;;;;5031777;28;20387;-81
2023/05/15 11:51:42;;;;;;;6.53;6.03;;;;;;;;;;5031811;28;20383;-81
2023/05/15 11:54:12;;;;;;;5.93;5.53;;;;;;;;;;5032341;28;20470;-78
2023/05/15 11:56:45;;;;;;;4.90;4.55;;;;;;;;;;5032321;28;20773;-80
2023/05/15 11:59:15;;;;;;;4.63;4.22;;;;;;;;;;5035834;28;20501;-82
2023/05/15 12:01:42;;;;;;;4.50;4.10;;;;;;;;;;5046108;28;20861;-80
2023/05/15 12:04:13;;;;;;;3.63;3.33;;;;;;;;;;5044567;28;20963;-81
2023/05/15 12:06:39;;;;;;;4.10;3.80;;;;;;;;;;5042268;28;20378;-81
2023/05/15 12:09:07;;;;;;;2.33;2.13;;;;;;;;;;5042768;28;20383;-80
2023/05/15 12:11:33;;;;;;;3.55;1.98;;;;;;;;;;5041071;28;20473;-81
2023/05/15 12:13:59;;;;;;;5.00;2.50;;;;;;;;;;5035312;28;20458;-81
2023/05/15 12:16:26;;;;;;;3.78;1.80;;;;;;;;;;5036404;28;20458;-81
2023/05/15 12:18:52;;;;;;;2.40;1.55;;;;;;;;;;5045674;28;20925;-81
2023/05/15 12:21:18;;;;;;;2.65;2.08;;;;;;;;;;5027509;28;20888;-81
2023/05/15 12:23:52;;;;;;;2.80;2.50;;;;;;;;;;5041470;28;20378;-81
2023/05/15 12:26:18;;;;;;;4.67;2.40;;;;;;;;;;5039364;28;20420;-82
2023/05/15 12:28:44;;;;;;;3.28;2.55;;;;;;;;;;5038180;28;20442;-82
2023/05/15 12:31:11;;;;;;;2.22;2.03;;;;;;;;;;5048370;28;20397;-81
2023/05/15 12:33:37;;;;;;;2.30;2.03;;;;;;;;;;5041022;28;20440;-82
2023/05/15 12:36:03;;;;;;;2.50;2.30;;;;;;;;;;5040947;28;20430;-81
2023/05/15 12:38:29;;;;;;;2.53;2.33;;;;;;;;;;5050643;28;20413;-81
2023/05/15 12:40:56;;;;;;;2.22;1.92;;;;;;;;;;5045469;28;20454;-81
2023/05/15 12:43:25;;;;;;;2.67;2.20;;;;;;;;;;5049370;28;20795;-81
2023/05/15 12:45:55;;;;;;;2.20;1.90;;;;;;;;;;5045215;28;20389;-82
2023/05/15 12:48:21;;;;;;;2.17;1.60;;;;;;;;;;5046663;28;20741;-82
2023/05/15 12:50:49;;;;;;;2.15;1.95;;;;;;;;;;5040360;28;20418;-82
2023/05/15 12:53:15;;;;;;;3.17;2.35;;;;;;;;;;5032864;28;20435;-82
2023/05/15 12:55:41;;;;;;;2.78;2.58;;;;;;;;;;5032426;28;20401;-82
2023/05/15 12:58:08;;;;;;;4.50;3.53;;;;;;;;;;5050063;28;20465;-82
2023/05/15 13:00:35;;;;;;;4.22;3.92;;;;;;;;;;5048317;28;20382;-82
2023/05/15 13:03:01;;;;;;;4.18;3.83;;;;;;;;;;5050361;28;20798;-80
2023/05/15 13:05:28;;;;;;;2.85;2.65;;;;;;;;;;5041066;28;20410;-79
2023/05/15 13:07:54;;;;;;;2.90;2.70;;;;;;;;;;5045896;28;20398;-81
2023/05/15 13:10:24;;;;;;;3.80;3.40;;;;;;;;;;5048641;28;20407;-81
2023/05/15 13:12:51;;;;;;;3.00;2.67;;;;;;;;;;5044137;28;20819;-81
2023/05/15 13:15:36;;;;;;;3.80;2.70;;;;;;;;;;5050467;28;20407;-81
2023/05/15 13:18:03;;;;;;;3.80;3.40;;;;;;;;;;5041520;28;20383;-81
2023/05/15 13:20:32;;;;;;;3.58;3.28;;;;;;;;;;5044010;28;20413;-80
2023/05/15 13:22:58;;;;;;;4.03;3.73;;;;;;;;;;5020095;28;20391;-80
2023/05/15 13:25:24;;;;;;;4.65;4.25;;;;;;;;;;5040620;28;20389;-80
2023/05/15 13:27:50;;;;;;;3.00;2.80;;;;;;;;;;5034789;28;20383;-80
2023/05/15 13:30:17;;;;;;;2.50;2.30;;;;;;;;;;5038822;28;20461;-80
2023/05/15 13:32:43;;;;;;;2.60;2.28;;;;;;;;;;5023385;28;20393;-80
2023/05/15 13:35:09;;;;;;;2.45;2.28;;;;;;;;;;5029930;28;20397;-80
2023/05/15 13:37:35;;;;;;;3.28;3.08;;;;;;;;;;5039367;28;20836;-80
2023/05/15 13:40:04;;;;;;;2.15;2.00;;;;;;;;;;5032010;28;20432;-80
2023/05/15 13:42:30;;;;;;;1.33;1.23;;;;;;;;;;5044947;28;20443;-80
2023/05/15 13:44:57;;;;;;;1.60;1.50;;;;;;;;;;5055132;28;20387;-80
2023/05/15 13:47:23;;;;;;;1.23;1.20;;;;;;;;;;5031494;28;20934;-80
2023/05/15 13:49:49;;;;;;;1.70;1.33;;;;;;;;;;5053102;28;20393;-80
2023/05/15 13:52:15;;;;;;;2.92;2.10;;;;;;;;;;5045721;28;20498;-82
2023/05/15 13:54:41;;;;;;;1.70;1.60;;;;;;;;;;5034680;28;20413;-82
2023/05/15 13:57:07;;;;;;;1.63;1.52;;;;;;;;;;5045477;28;20480;-82
2023/05/15 13:59:33;;;;;;;2.15;2.05;;;;;;;;;;5053837;28;20406;-82
2023/05/15 14:01:59;;;;;;;1.30;1.20;;;;;;;;;;5054758;28;20939;-81
2023/05/15 14:04:25;;;;;;;1.33;1.23;;;;;;;;;;5054742;28;20448;-82
2023/05/15 14:06:51;;;;;;;1.40;1.30;;;;;;;;;;5042515;28;20405;-81
2023/05/15 14:09:17;;;;;;;2.03;1.33;;;;;;;;;;5054737;28;20382;-82
2023/05/15 14:11:43;;;;;;;1.80;1.70;;;;;;;;;;5053073;28;20406;-82
2023/05/15 14:14:10;;;;;;;1.60;1.50;;;;;;;;;;5046490;28;20465;-81
2023/05/15 14:16:36;;;;;;;1.52;1.42;;;;;;;;;;5054455;28;20378;-82
2023/05/15 14:19:02;;;;;;;2.25;1.63;;;;;;;;;;5054603;28;20419;-81
2023/05/15 14:21:28;;;;;;;1.45;1.35;;;;;;;;;;5054162;28;20378;-82
2023/05/15 14:23:54;;;;;;;1.58;1.48;;;;;;;;;;5054380;28;20457;-81
2023/05/15 14:26:20;;;;;;;2.22;1.42;;;;;;;;;;5044277;28;20829;-82